Del Mar Heights (610) Station Data

Red Flag Warning: No
Fire Weather Zone: 243
SDGE Region: North Coast
Lat/Lon: 32.964/-117.223

Observations

Time Wind Speed/Gust Temp(F) RH Fuel Moist Fuel Temp(F) Dewpt(F) Tmax(F) Tmin(F) Accum Precip 10-min Precip SL Press(mb)
3/29 8:00am 115 3 G 5 55° 64% 10.5% 58.11° 43° 59.4° 53.4° - - 1016.0
3/29 7:50am 75 2 G 3 55° 64% 10.5% 56.98° 43° 59.4° 53.4° - - 1016.0
3/29 7:40am 95 0 G 1 58° 59% 10.6% 57.47° 43° 59.4° 53.4° - - 1016.0
3/29 7:30am 112 1 G 2 56° 59% 10.5% 55.83° 42° 59.4° 53.4° - - 1016.0
3/29 7:20am 140 1 G 3 55° 59% 10.4% 54.23° 41° 59.4° 53.4° - - 1016.0
3/29 7:10am 202 2 G 3 56° 58% 10.3% 52.35° 41° 59.4° 53.4° - - 1015.0
3/29 7:00am 236 2 G 5 54° 61% 10.2% 50.71° 41° 59.4° 53.4° - - 1015.0
3/29 6:50am 37 1 G 2 55° 57% 10% 50.08° 40° 59.4° 53.6° - - 1015.0
3/29 6:40am 238 1 G 2 56° 56% 10% 50.93° 40° 59.4° 53.6° - - 1015.0
3/29 6:30am 141 2 G 5 55° 57% 10.1% 51.84° 40° 59.4° 53.6° - - 1015.0
3/29 6:20am 134 4 G 5 55° 59% 10.1% 51.67° 41° 59.4° 53.6° - - 1015.0
3/29 6:10am 133 3 G 4 55° 59% 10% 51.67° 41° 59.4° 53.6° - - 1015.0
3/29 6:00am 140 4 G 5 56° 58% 10.1% 52.51° 41° 59.4° 53.6° - - 1015.0
3/29 5:50am 147 4 G 6 55° 59% 10.1% 52.62° 41° 59.4° 53.6° - - 1015.0
3/29 5:40am 156 3 G 5 56° 59% 10.1% 52.35° 41° 59.4° 53.6° - - 1015.0
3/29 5:30am 149 4 G 6 56° 56% 10.1% 52.88° 41° 59.4° 53.6° - - 1015.0
3/29 5:20am 144 4 G 5 56° 57% 10% 52.66° 41° 59.4° 53.6° - - 1015.0
3/29 5:10am 150 4 G 6 56° 57% 10.1% 52.91° 41° 59.4° 53.6° - - 1015.0
3/29 5:00am 156 4 G 6 54° 61% 10% 52.15° 41° 59.4° 53.6° - - 1015.0
3/29 4:50am 202 2 G 4 55° 61% 9.9% 50.75° 41° 59.4° 53.9° - - 1015.0
3/29 4:40am 149 4 G 6 55° 61% 10% 51.8° 41° 59.4° 53.9° - - 1015.0
3/29 4:30am 132 2 G 5 56° 56% 9.9% 51.73° 41° 59.4° 54° - - 1015.0
3/29 4:20am 90 1 G 4 57° 55% 9.8% 51.49° 41° 59.4° 54° - - 1015.0
3/29 4:10am 193 2 G 5 57° 54% 9.9% 52.11° 40° 59.4° 54° - - 1015.0
3/29 4:00am 223 1 G 3 55° 56% 9.8% 50.99° 40° 59.4° 54° - - 1015.0
3/29 3:50am 291 2 G 2 55° 57% 9.8% 50.73° 40° 59.4° 54° - - 1015.0
3/29 3:40am 22 1 G 3 55° 56% 9.7% 49.94° 40° 59.4° 54.1° - - 1015.0
3/29 3:30am 85 1 G 2 57° 53% 9.7% 51.24° 39° 59.4° 54.6° - - 1015.0
3/29 3:20am 125 1 G 3 57° 50% 9.7% 52.07° 39° 59.4° 54.6° - - 1015.0
3/29 3:10am 155 2 G 5 58° 49% 9.8% 54.07° 39° 59.4° 54.6° - - 1015.0
3/29 3:00am 136 3 G 5 57° 52% 9.9% 53.94° 40° 59.4° 54.6° - - 1015.0
3/29 2:50am 116 3 G 5 57° 56% 9.9% 54.05° 41° 59.4° 54.6° - - 1015.0
3/29 2:40am 120 4 G 5 55° 61% 9.9% 52.67° 42° 59.4° 54.6° - - 1015.0
3/29 2:30am 108 3 G 4 55° 62% 9.8% 52.42° 42° 59.4° 54.6° - - 1015.0
3/29 2:20am 101 4 G 5 56° 61% 9.9% 53.37° 43° 59.4° 54.8° - - 1015.0
3/29 2:10am 82 4 G 5 55° 63% 9.8% 52.81° 43° 59.4° 54.8° - - 1015.0
3/29 2:00am 72 2 G 5 56° 57% 9.7% 52.03° 41° 59.4° 55.1° - - 1015.0
3/29 1:50am 102 1 G 3 57° 54% 9.6% 51.65° 40° 59.4° 55.4° - - 1015.0
3/29 1:40am 110 3 G 3 57° 54% 9.7% 52.76° 41° 59.4° 55.4° - - 1015.0
3/29 1:30am 112 2 G 4 57° 54% 9.7% 52.81° 41° 59.4° 55.4° - - 1015.0
3/29 1:20am 138 1 G 2 56° 56% 9.6% 52.43° 41° 59.4° 55.4° - - 1015.0
3/29 1:10am 143 2 G 4 56° 57% 9.6% 52.48° 41° 59.4° 55.4° - - 1015.0
3/29 1:00am 136 3 G 5 56° 56% 9.6% 53.21° 41° 59.4° 55.7° - - 1015.0
3/29 12:50am 130 3 G 5 57° 54% 9.7% 54.19° 41° 59.4° 56.1° - - 1015.0
3/29 12:40am 133 5 G 6 58° 52% 9.7% 55.17° 40° 59.4° 56.8° - - 1015.0
3/29 12:30am 142 4 G 5 59° 52% 9.7% 55.32° 41° 59.4° 56.8° - - 1015.0
3/29 12:20am 141 2 G 4 58° 55% 9.7% 54.58° 42° 59° 56.8° - - 1015.0
3/29 12:10am 127 4 G 6 57° 57% 9.7% 54.37° 42° 57.8° 56.8° - - 1016.0
3/29 12:00am 134 4 G 6 57° 58% 9.7% 54.91° 42° 65.8° 49.5° - - 1016.0
3/28 11:50pm 133 3 G 5 58° 56% 9.7% 54.55° 42° 65.8° 49.5° - - 1016.0
3/28 11:40pm 136 3 G 5 59° 54% 9.7% 55.2° 42° 65.8° 49.5° - - 1016.0
3/28 11:30pm 132 3 G 4 59° 54% 9.7% 55.31° 42° 65.8° 49.5° - - 1016.0
3/28 11:20pm 140 4 G 5 59° 55% 9.8% 55.44° 43° 65.8° 49.5° - - 1016.0
3/28 11:10pm 139 3 G 4 59° 57% 9.8% 55.16° 44° 65.8° 49.5° - - 1016.0
3/28 11:00pm 145 4 G 4 58° 59% 9.8% 55.67° 44° 65.8° 49.5° - - 1016.0
3/28 10:50pm 129 3 G 4 58° 64% 9.8% 54.96° 46° 65.8° 49.5° - - 1016.0
3/28 10:40pm 83 2 G 3 57° 66% 9.7% 54.2° 46° 65.8° 49.5° - - 1016.0
3/28 10:30pm 130 1 G 3 59° 63% 9.6% 54.18° 46° 65.8° 49.5° - - 1016.0
3/28 10:20pm 129 1 G 3 60° 57% 9.6% 55.52° 45° 65.8° 49.5° - - 1015.0
3/28 10:10pm 128 2 G 4 61° 56% 9.6% 56.68° 45° 65.8° 49.5° - - 1015.0
3/28 10:00pm 162 3 G 4 61° 56% 9.6% 58.4° 45° 65.8° 49.5° - - 1015.0
3/28 9:50pm 148 4 G 5 61° 57% 9.6% 57.96° 46° 65.8° 49.5° - - 1015.0
3/28 9:40pm 143 4 G 5 61° 61% 9.7% 57.94° 47° 65.8° 49.5° - - 1015.0
3/28 9:30pm 137 3 G 4 61° 61% 9.6% 57.45° 47° 65.8° 49.5° - - 1015.0
3/28 9:20pm 289 9 G 14 64° 57% 9.6% 90° 48° 65.4° 49.5° - - 1015.0
3/28 9:10pm 104 2 G 3 61° 64% 9.5% 56.92° 48° 65.8° 49.5° - - 1015.0
3/28 9:00pm 292 10 G 14 64° 62% 9.7% 89.1° 51° 65.3° 49.5° - - 1015.0
3/28 8:50pm 293 8 G 11 64° 63% 9.9% 91.5° 51° 65° 49.5° - - 1015.0
3/28 8:40pm 350 1 G 2 61° 67% 9.2% 55.22° 50° 65.8° 49.5° - - 1015.0
3/28 8:30pm 321 1 G 1 61° 65% 9.1% 56.21° 49° 65.8° 49.5° - - 1015.0
3/28 8:20pm 304 1 G 2 61° 63% 9% 56.34° 48° 65.8° 49.5° - - 1015.0
3/28 8:10pm 259 3 G 4 61° 64% 9% 56.67° 49° 65.8° 49.5° - - 1015.0
3/28 8:00pm 300 3 G 4 61° 62% 8.9% 56.63° 48° 65.8° 49.5° - - 1015.0
3/28 7:50pm 287 4 G 5 61° 62% 8.8% 56.8° 48° 65.8° 49.5° - - 1014.0
3/28 7:40pm 277 3 G 5 61° 62% 8.7% 57.39° 48° 65.8° 49.5° - - 1014.0
3/28 7:30pm 283 4 G 6 62° 61% 8.7% 58° 48° 65.8° 49.5° - - 1014.0
3/28 7:20pm 283 5 G 7 62° 59% 8.6% 58.64° 48° 65.8° 49.5° - - 1014.0
3/28 7:10pm 277 4 G 6 62° 56% 8.6% 59.18° 47° 65.8° 49.5° - - 1014.0
3/28 7:00pm 288 4 G 6 63° 55% 8.6% 60.15° 46° 65.8° 49.5° - - 1014.0
3/28 6:50pm 299 4 G 6 63° 55% 8.6% 61.3° 47° 65.8° 49.5° - - 1014.0
3/28 6:40pm 299 3 G 5 64° 55% 8.6% 62.68° 47° 65.8° 49.5° - - 1014.0
3/28 6:30pm 327 4 G 6 64° 56% 8.6% 64.47° 48° 65.8° 49.5° - - 1014.0
3/28 6:20pm 305 5 G 8 64° 56% 8.6% 67.25° 48° 65.8° 49.5° - - 1014.0
3/28 6:10pm 297 4 G 5 64° 56% 8.7% 71.15° 48° 65.8° 49.5° - - 1014.0
3/28 6:00pm 302 5 G 10 64° 58% 8.7% 72.01° 49° 65.8° 49.5° - - 1014.0
3/28 5:50pm 310 9 G 13 64° 60% 8.7% 72.5° 50° 65.8° 49.5° - - 1014.0
3/28 5:40pm 304 8 G 12 64° 60% 8.7% 73.96° 50° 65.8° 49.5° - - 1014.0
3/28 5:30pm 279 6 G 11 64° 59% 8.7% 75.32° 49° 65.8° 49.5° - - 1014.0
3/28 5:20pm 300 9 G 14 61° 71% 12.7% 80.8° 51° 62° 49.5° - - 1016.0
3/28 5:10pm 291 8 G 12 64° 65% 8.8% 76.53° 52° 65.8° 49.5° - - 1014.0
3/28 5:00pm 291 7 G 11 64° 64% 8.8% 77.65° 52° 65.8° 49.5° - - 1014.0
3/28 4:50pm 345 3 G 10 61° 72% 13.5% 77.54° 52° 62° 49.5° - - 1016.0
3/28 4:40pm 312 10 G 16 63° 66% 8.8% 77.72° 52° 65.8° 49.5° - - 1013.0
3/28 4:30pm 346 2 G 3 59° 78% 14.2% 75.98° 52° 59.9° 49.5° - - 1016.0
3/28 4:20pm 315 1 G 4 59° 78% 14.6% 74.14° 52° 59.9° 49.5° - - 1016.0
3/28 4:10pm 304 10 G 15 64° 62% 8.6% 77.03° 50° 65.8° 49.5° - - 1013.0
3/28 4:00pm 40 2 G 4 57° 81% 15.2% 67.05° 51° 57.6° 49.5° - - 1016.0
3/28 3:50pm 288 9 G 15 64° 58% 8.8% 82.1° 49° 65.8° 49.5° - - 1014.0
3/28 3:40pm 32 1 G 3 56° 83% 16% 63.6° 51° 57.2° 49.5° - - 1016.0
3/28 3:30pm 301 9 G 16 65° 56% 9% 85.4° 49° 65.8° 49.5° - - 1014.0
3/28 3:20pm 309 9 G 14 65° 56% 9% 86.8° 48° 65.6° 49.5° - - 1014.0
3/28 3:10pm 58 2 G 3 53° 87% 17% 57.07° 50° 55.5° 49.5° - - 1016.0
3/28 3:00pm 302 9 G 14 64° 56% 9.2% 86.1° 48° 65.6° 49.5° - - 1014.0
3/28 2:50pm 97 2 G 3 53° 89% 17.6% 54.44° 49° 55.5° 49.5° - - 1016.0
3/28 2:40pm 286 9 G 15 64° 60% 9.3% 86.6° 50° 65.6° 49.5° - - 1014.0
3/28 2:30pm 291 8 G 13 64° 59% 9.4% 89.6° 50° 65.6° 49.5° - - 1015.0
3/28 2:20pm 131 3 G 5 51° 93% 18% 51.02° 49° 55.5° 49.5° - - 1015.0
3/28 2:10pm 287 9 G 15 64° 57% 9.6% 88.9° 49° 65.4° 49.5° - - 1015.0
3/28 2:00pm 182 2 G 4 50° 95% 17.7% 48.57° 49° 55.5° 49.5° - - 1015.0
3/28 1:50pm 109 3 G 5 50° 94% 17.5% 47.94° 48° 55.5° 49.5° - - 1015.0
3/28 1:40pm 286 9 G 14 63° 66% 10% 90.4° 51° 64.2° 49.5° - - 1015.0
3/28 1:30pm 126 3 G 7 51° 94% 17.3% 49.39° 49° 55.5° 49.7° - - 1015.0
3/28 1:20pm 297 10 G 17 62° 72% 10.2% 87.7° 53° 63.6° 49.5° - - 1016.0
3/28 1:10pm 280 11 G 15 62° 72% 10.3% 86.7° 53° 63.6° 49.5° - - 1016.0
3/28 1:00pm 142 4 G 5 51° 92% 16.9% 49.62° 49° 55.5° 50.1° - - 1015.0
3/28 12:50pm 303 10 G 15 62° 68% 10.5% 87.9° 52° 63.2° 49.5° - - 1016.0
3/28 12:40pm 291 11 G 16 62° 66% 10.6% 87.2° 50° 63.2° 49.5° - - 1015.0
3/28 12:30pm 296 9 G 17 62° 62% 10.7% 86.2° 49° 63.2° 49.5° - - 1015.0
3/28 12:20pm 290 13 G 18 61° 62% 10.8% 83.1° 48° 62.6° 49.5° - - 1015.0
3/28 12:10pm 284 12 G 18 61° 65% 11% 82.7° 49° 62.6° 49.5° - - 1016.0
3/28 12:00pm 288 10 G 15 61° 67% 11.1% 85.4° 50° 62.6° 49.5° - - 1016.0
3/28 11:50am 296 12 G 17 61° 60% 11.3% 83.8° 47° 62.1° 49.5° - - 1016.0
3/28 11:40am 283 14 G 18 60° 58% 11.3% 81.6° 46° 62° 49.5° - - 1016.0
3/28 11:30am 279 13 G 18 61° 65% 11.6% 80.7° 49° 62° 49.5° - - 1016.0
3/28 11:20am 287 13 G 17 61° 65% 11.7% 81° 49° 62° 49.5° - - 1016.0
3/28 11:10am 288 12 G 17 61° 70% 11.9% 80.8° 51° 62° 49.5° - - 1016.0
3/28 11:00am 290 12 G 16 61° 70% 12.1% 81.3° 51° 62° 49.5° - - 1016.0
3/28 10:50am 288 12 G 18 61° 71% 12.2% 79.52° 51° 62° 49.5° - - 1016.0
3/28 10:40am 287 13 G 19 60° 73% 12.3% 77.91° 52° 62° 49.5° - - 1016.0
3/28 10:30am 301 10 G 16 61° 70% 12.5% 79.13° 51° 62° 49.5° - - 1016.0
3/28 10:10am 303 9 G 15 61° 68% 12.9% 80.1° 50° 62° 49.5° - - 1016.0
3/28 10:00am 312 6 G 11 60° 71% 13.2% 80.6° 51° 62° 49.5° - - 1016.0
3/28 9:40am 355 1 G 2 59° 73% 13.8% 75.72° 51° 60.3° 49.5° - - 1016.0
3/28 9:10am 337 1 G 2 58° 79% 14.9% 70.51° 51° 58.3° 49.5° - - 1016.0
3/28 8:50am 46 2 G 3 56° 83% 15.6% 64.12° 51° 57.2° 49.5° - - 1016.0
3/28 8:30am 65 1 G 3 55° 86% 16.4% 60.95° 51° 56° 49.5° - - 1016.0
3/28 8:20am 265 1 G 2 54° 87% 16.8% 59.79° 50° 55.5° 49.5° - - 1016.0
3/28 8:00am 92 1 G 3 53° 87% 17.4% 55.96° 50° 55.5° 49.5° - - 1016.0
3/28 7:40am 110 1 G 2 53° 90% 17.8% 53.61° 50° 55.5° 49.5° - - 1016.0
3/28 7:30am 157 2 G 4 52° 92% 17.9% 52.22° 49° 55.5° 49.5° - - 1015.0
3/28 7:10am 147 2 G 4 51° 94% 17.9% 50.43° 50° 55.5° 49.5° - - 1015.0
3/28 6:40am 138 2 G 3 51° 93% 17.4% 48.65° 49° 55.5° 49.7° - - 1015.0
3/28 6:20am 113 5 G 7 50° 93% 17.1% 48.65° 48° 55.5° 49.7° - - 1015.0
3/28 6:10am 117 4 G 5 51° 91% 17% 48.92° 49° 55.5° 50.1° - - 1015.0